createdAt,value
2022-08-22T00:01:54.732Z,100.00
2022-08-22T00:02:45.526Z,100.00
2022-08-22T00:04:33.343Z,100.00
2022-08-22T00:07:14.067Z,100.00
2022-08-22T00:09:55.391Z,100.00
2022-08-22T00:12:29.621Z,100.00
2022-08-22T00:15:03.244Z,100.00
2022-08-22T00:17:42.176Z,100.00
2022-08-22T00:20:17.483Z,100.00
2022-08-22T00:22:52.987Z,100.00
2022-08-22T00:25:57.460Z,100.00
2022-08-22T00:28:31.130Z,100.00
2022-08-22T00:31:15.786Z,100.00
2022-08-22T00:33:49.881Z,100.00
2022-08-22T00:36:27.680Z,100.00
2022-08-22T00:39:05.347Z,100.00
2022-08-22T00:41:50.767Z,100.00
2022-08-22T00:44:52.069Z,100.00
2022-08-22T00:47:36.869Z,100.00
2022-08-22T00:50:24.513Z,100.00
2022-08-22T00:53:10.548Z,100.00
2022-08-22T00:55:55.320Z,100.00
2022-08-22T00:58:55.537Z,100.00
2022-08-22T01:01:31.638Z,100.00
2022-08-22T01:04:26.128Z,100.00
2022-08-22T01:07:10.274Z,100.00
2022-08-22T01:09:55.770Z,100.00
2022-08-22T01:12:53.143Z,100.00
2022-08-22T01:15:27.657Z,100.00
2022-08-22T01:18:17.937Z,100.00
2022-08-22T01:21:24.385Z,100.00
2022-08-22T01:24:29.581Z,100.00
2022-08-22T01:27:47.709Z,100.00
2022-08-22T01:31:00.835Z,100.00
2022-08-22T01:34:13.057Z,100.00
2022-08-22T01:36:57.173Z,100.00
2022-08-22T01:39:54.171Z,100.00
2022-08-22T01:42:54.150Z,100.00
2022-08-22T01:45:43.795Z,100.00
2022-08-22T01:48:18.438Z,100.00
2022-08-22T01:50:54.877Z,100.00
2022-08-22T01:53:31.727Z,100.00
2022-08-22T01:56:07.949Z,100.00
2022-08-22T01:58:40.440Z,100.00
2022-08-22T02:01:26.970Z,100.00
2022-08-22T02:04:06.016Z,100.00
2022-08-22T02:06:46.820Z,100.00
2022-08-22T02:09:28.000Z,100.00
2022-08-22T02:11:58.188Z,100.00
2022-08-22T02:14:41.988Z,100.00
2022-08-22T02:17:18.982Z,100.00
2022-08-22T02:19:56.901Z,100.00
2022-08-22T02:22:38.061Z,100.00
2022-08-22T02:25:18.979Z,100.00
2022-08-22T02:27:58.465Z,100.00
2022-08-22T02:30:43.100Z,100.00
2022-08-22T02:33:17.988Z,100.00
2022-08-22T02:35:53.361Z,100.00
2022-08-22T02:38:29.579Z,100.00
2022-08-22T02:41:10.096Z,100.00
2022-08-22T02:43:49.619Z,100.00
2022-08-22T02:46:28.264Z,100.00
2022-08-22T02:49:05.807Z,100.00
2022-08-22T02:51:44.861Z,100.00
2022-08-22T02:54:23.823Z,100.00
2022-08-22T02:56:59.127Z,100.00
2022-08-22T02:59:35.113Z,100.00
2022-08-22T03:02:31.054Z,100.00
2022-08-22T03:05:02.133Z,100.00
2022-08-22T03:07:42.577Z,100.00
2022-08-22T03:10:19.901Z,100.00
2022-08-22T03:13:00.294Z,100.00
2022-08-22T03:15:38.268Z,100.00
2022-08-22T03:18:19.821Z,100.00
2022-08-22T03:20:54.588Z,100.00
2022-08-22T03:23:33.233Z,100.00
2022-08-22T03:26:13.875Z,100.00
2022-08-22T03:28:52.728Z,100.00
2022-08-22T03:31:31.224Z,100.00
2022-08-22T03:34:22.582Z,100.00
2022-08-22T03:37:09.085Z,100.00
2022-08-22T03:39:49.490Z,100.00
2022-08-22T03:42:37.456Z,100.00
2022-08-22T03:45:38.714Z,100.00
2022-08-22T03:48:40.464Z,100.00
2022-08-22T03:51:32.597Z,100.00
2022-08-22T03:54:52.943Z,100.00
2022-08-22T03:57:54.897Z,100.00
2022-08-22T04:01:15.105Z,100.00
2022-08-22T04:04:31.898Z,100.00
2022-08-22T04:07:32.169Z,100.00
2022-08-22T04:10:31.934Z,100.00
2022-08-22T04:13:25.387Z,100.00
2022-08-22T04:16:38.808Z,100.00
2022-08-22T04:19:25.952Z,100.00
2022-08-22T04:22:22.367Z,100.00
2022-08-22T04:24:56.642Z,100.00
2022-08-22T04:27:31.952Z,100.00
2022-08-22T04:30:23.765Z,100.00
2022-08-22T04:33:00.595Z,100.00
2022-08-22T04:35:33.181Z,100.00
2022-08-22T04:38:09.748Z,100.00
2022-08-22T04:40:45.030Z,100.00
2022-08-22T04:43:21.458Z,100.00
2022-08-22T04:45:58.032Z,100.00
2022-08-22T04:48:34.239Z,100.00
2022-08-22T04:51:08.270Z,100.00
2022-08-22T04:53:57.188Z,100.00
2022-08-22T04:56:34.808Z,100.00
2022-08-22T04:59:09.844Z,100.00
2022-08-22T05:01:46.857Z,100.00
2022-08-22T05:04:20.116Z,100.00
2022-08-22T05:06:52.591Z,100.00
2022-08-22T05:09:27.927Z,100.00
2022-08-22T05:12:03.340Z,100.00
2022-08-22T05:14:38.695Z,100.00
2022-08-22T05:17:15.593Z,100.00
2022-08-22T05:19:50.979Z,100.00
2022-08-22T05:22:23.020Z,100.00
2022-08-22T05:24:56.270Z,100.00
2022-08-22T05:27:27.447Z,100.00
2022-08-22T05:30:02.690Z,100.00
2022-08-22T05:32:41.612Z,100.00
2022-08-22T05:35:11.584Z,100.00
2022-08-22T05:37:46.037Z,100.00
2022-08-22T05:40:20.136Z,100.00
2022-08-22T05:42:48.988Z,100.00
2022-08-22T05:45:20.423Z,100.00
2022-08-22T05:47:54.736Z,100.00
2022-08-22T05:50:29.901Z,100.00
2022-08-22T05:53:06.630Z,100.00
2022-08-22T05:55:46.708Z,100.00
2022-08-22T05:58:32.080Z,100.00
2022-08-22T06:01:10.486Z,100.00
2022-08-22T06:03:47.625Z,100.00
2022-08-22T06:06:20.144Z,100.00
2022-08-22T06:08:59.544Z,100.00
2022-08-22T06:11:35.800Z,100.00
2022-08-22T06:14:20.606Z,100.00
2022-08-22T06:17:01.684Z,100.00
2022-08-22T06:19:34.632Z,100.00
2022-08-22T06:22:04.892Z,100.00
2022-08-22T06:24:37.643Z,100.00
2022-08-22T06:27:10.404Z,100.00
2022-08-22T06:29:42.910Z,100.00
2022-08-22T06:32:17.746Z,100.00
2022-08-22T06:35:14.563Z,100.00
2022-08-22T06:37:47.416Z,100.00
2022-08-22T06:40:18.043Z,100.00
2022-08-22T06:42:51.629Z,100.00
2022-08-22T06:45:24.712Z,100.00
2022-08-22T06:48:00.897Z,100.00
2022-08-22T06:50:34.511Z,100.00
2022-08-22T06:53:08.412Z,100.00
2022-08-22T06:55:40.661Z,100.00
2022-08-22T06:58:15.692Z,100.00
2022-08-22T07:00:51.571Z,100.00
2022-08-22T07:03:37.221Z,100.00
2022-08-22T07:06:08.087Z,100.00
2022-08-22T07:08:39.195Z,100.00
2022-08-22T07:11:16.542Z,100.00
2022-08-22T07:13:49.988Z,100.00
2022-08-22T07:16:30.730Z,100.00
2022-08-22T07:19:01.389Z,100.00
2022-08-22T07:21:42.944Z,100.00
2022-08-22T07:24:17.946Z,100.00
2022-08-22T07:27:06.110Z,100.00
2022-08-22T07:29:48.101Z,100.00
2022-08-22T07:32:21.269Z,100.00
2022-08-22T07:35:03.458Z,100.00
2022-08-22T07:37:47.676Z,100.00
2022-08-22T07:40:24.939Z,100.00
2022-08-22T07:43:01.103Z,100.00
2022-08-22T07:45:36.561Z,100.00
2022-08-22T07:48:25.094Z,100.00
2022-08-22T07:51:08.380Z,100.00
2022-08-22T07:53:44.326Z,100.00
2022-08-22T07:56:17.170Z,100.00
2022-08-22T07:58:49.547Z,100.00
2022-08-22T08:01:22.272Z,100.00
2022-08-22T08:03:56.358Z,100.00
2022-08-22T08:06:27.784Z,100.00
2022-08-22T08:08:58.657Z,100.00
2022-08-22T08:11:30.529Z,100.00
2022-08-22T08:14:03.198Z,100.00
2022-08-22T08:16:41.521Z,100.00
2022-08-22T08:19:11.967Z,100.00
2022-08-22T08:21:44.343Z,100.00
2022-08-22T08:24:21.362Z,100.00
2022-08-22T08:27:18.474Z,100.00
2022-08-22T08:29:56.519Z,100.00
2022-08-22T08:32:27.363Z,100.00
2022-08-22T08:34:56.744Z,100.00
2022-08-22T08:37:32.285Z,100.00
2022-08-22T08:40:04.949Z,100.00
2022-08-22T08:43:21.341Z,100.00
2022-08-22T08:46:30.224Z,100.00
2022-08-22T08:49:17.791Z,100.00
2022-08-22T08:52:25.163Z,100.00
2022-08-22T08:55:19.758Z,100.00
2022-08-22T08:58:07.109Z,100.00
2022-08-22T09:00:57.589Z,100.00
2022-08-22T09:04:15.301Z,100.00
2022-08-22T09:07:31.339Z,100.00
2022-08-22T09:10:19.621Z,100.00
2022-08-22T09:13:11.624Z,100.00
2022-08-22T09:16:04.774Z,100.00
2022-08-22T09:19:16.055Z,100.00
2022-08-22T09:22:20.385Z,100.00
2022-08-22T09:25:05.983Z,100.00
2022-08-22T09:27:40.022Z,100.00
2022-08-22T09:30:14.526Z,100.00
2022-08-22T09:32:50.112Z,100.00
2022-08-22T09:35:27.703Z,100.00
2022-08-22T09:38:11.325Z,100.00
2022-08-22T09:40:48.172Z,100.00
2022-08-22T09:43:25.809Z,100.00
2022-08-22T09:46:08.219Z,100.00
2022-08-22T09:48:54.029Z,100.00
2022-08-22T09:51:34.785Z,100.00
2022-08-22T09:54:23.427Z,100.00
2022-08-22T09:57:02.289Z,100.00
2022-08-22T09:59:46.365Z,100.00
2022-08-22T10:02:28.769Z,100.00
2022-08-22T10:05:05.302Z,100.00
2022-08-22T10:07:59.698Z,100.00
2022-08-22T10:10:43.176Z,100.00
2022-08-22T10:13:28.295Z,100.00
2022-08-22T10:16:07.047Z,100.00
2022-08-22T10:18:53.927Z,100.00
2022-08-22T10:21:34.652Z,100.00
2022-08-22T10:24:25.544Z,100.00
2022-08-22T10:26:58.429Z,100.00
2022-08-22T10:29:53.555Z,100.00
2022-08-22T10:32:35.352Z,100.00
2022-08-22T10:35:18.038Z,100.00
2022-08-22T10:37:55.468Z,100.00
2022-08-22T10:40:31.039Z,100.00
2022-08-22T10:43:07.700Z,100.00
2022-08-22T10:45:41.780Z,100.00
2022-08-22T10:48:37.948Z,100.00
2022-08-22T10:51:20.647Z,100.00
2022-08-22T10:54:19.948Z,100.00
2022-08-22T10:56:57.610Z,100.00
2022-08-22T10:59:42.435Z,100.00
2022-08-22T11:02:42.292Z,100.00
2022-08-22T11:05:36.277Z,100.00
2022-08-22T11:08:18.487Z,100.00
2022-08-22T11:11:04.059Z,100.00
2022-08-22T11:13:43.433Z,100.00
2022-08-22T11:16:31.247Z,100.00
2022-08-22T11:19:18.260Z,100.00
2022-08-22T11:22:03.748Z,100.00
2022-08-22T11:25:35.863Z,100.00
2022-08-22T11:28:43.949Z,100.00
2022-08-22T11:31:24.304Z,100.00
2022-08-22T11:33:57.096Z,100.00
2022-08-22T11:36:38.495Z,100.00
2022-08-22T11:39:22.764Z,100.00
2022-08-22T11:42:09.942Z,100.00
2022-08-22T11:44:50.488Z,100.00
2022-08-22T11:47:26.622Z,100.00
2022-08-22T11:50:01.614Z,100.00
2022-08-22T11:52:54.570Z,100.00
2022-08-22T11:55:34.655Z,100.00
2022-08-22T11:58:29.381Z,100.00
2022-08-22T12:01:05.411Z,100.00
2022-08-22T12:03:58.265Z,100.00
2022-08-22T12:06:56.300Z,100.00
2022-08-22T12:09:44.580Z,100.00
2022-08-22T12:12:50.560Z,100.00
2022-08-22T12:15:25.310Z,100.00
2022-08-22T12:18:30.396Z,100.00
2022-08-22T12:21:29.786Z,100.00
2022-08-22T12:24:20.930Z,100.00
2022-08-22T12:26:59.774Z,100.00
2022-08-22T12:29:46.218Z,100.00
2022-08-22T12:32:43.764Z,100.00
2022-08-22T12:35:29.715Z,100.00
2022-08-22T12:38:28.277Z,100.00
2022-08-22T12:41:28.261Z,100.00
2022-08-22T12:44:23.401Z,100.00
2022-08-22T12:47:09.271Z,100.00
2022-08-22T12:49:53.300Z,100.00
2022-08-22T12:52:37.755Z,100.00
2022-08-22T12:55:30.365Z,100.00
2022-08-22T12:58:08.469Z,100.00
2022-08-22T13:00:41.556Z,100.00
2022-08-22T13:03:20.072Z,100.00
2022-08-22T13:05:56.694Z,100.00
2022-08-22T13:08:33.437Z,100.00
2022-08-22T13:11:22.833Z,100.00
2022-08-22T13:13:57.366Z,100.00
2022-08-22T13:16:36.443Z,100.00
2022-08-22T13:19:13.728Z,100.00
2022-08-22T13:21:48.796Z,100.00
2022-08-22T13:24:38.473Z,100.00
2022-08-22T13:27:12.674Z,100.00
2022-08-22T13:29:48.699Z,100.00
2022-08-22T13:32:29.730Z,100.00
2022-08-22T13:35:01.213Z,100.00
2022-08-22T13:37:37.979Z,100.00
2022-08-22T13:40:11.446Z,100.00
2022-08-22T13:42:48.726Z,100.00
2022-08-22T13:45:25.741Z,100.00
2022-08-22T13:47:59.219Z,100.00
2022-08-22T13:50:53.298Z,100.00
2022-08-22T13:53:33.233Z,100.00
2022-08-22T13:56:15.539Z,100.00
2022-08-22T13:58:47.640Z,100.00
2022-08-22T14:01:38.113Z,100.00
2022-08-22T14:04:33.339Z,100.00
2022-08-22T14:07:25.577Z,100.00
2022-08-22T14:09:58.995Z,100.00
2022-08-22T14:12:50.529Z,100.00
2022-08-22T14:15:24.915Z,100.00
2022-08-22T14:18:03.295Z,100.00
2022-08-22T14:20:33.929Z,100.00
2022-08-22T14:23:10.646Z,100.00
2022-08-22T14:25:43.503Z,100.00
2022-08-22T14:28:27.352Z,100.00
2022-08-22T14:31:03.612Z,100.00
2022-08-22T14:33:39.858Z,98.91
2022-08-22T14:36:17.085Z,94.70
2022-08-22T14:38:53.427Z,94.30
2022-08-22T14:41:52.784Z,89.73
2022-08-22T14:44:24.605Z,92.92
2022-08-22T14:46:57.274Z,91.67
2022-08-22T14:49:32.212Z,92.21
2022-08-22T14:52:09.121Z,89.15
2022-08-22T14:54:42.562Z,81.67
2022-08-22T14:57:19.957Z,79.43
2022-08-22T14:59:53.884Z,77.22
2022-08-22T15:02:28.270Z,72.99
2022-08-22T15:05:01.922Z,74.06
2022-08-22T15:07:37.527Z,75.20
2022-08-22T15:10:11.924Z,73.45
2022-08-22T15:12:48.771Z,84.97
2022-08-22T15:15:31.154Z,87.50
2022-08-22T15:18:00.020Z,84.51
2022-08-22T15:20:34.122Z,81.96
2022-08-22T15:23:09.892Z,84.15
2022-08-22T15:25:42.925Z,78.41
2022-08-22T15:28:20.808Z,73.38
2022-08-22T15:31:03.434Z,74.06
2022-08-22T15:33:36.202Z,75.82
2022-08-22T15:36:15.878Z,73.99
2022-08-22T15:38:48.063Z,71.30
2022-08-22T15:41:42.642Z,67.40
2022-08-22T15:44:33.001Z,73.35
2022-08-22T15:47:10.878Z,82.88
2022-08-22T15:49:52.553Z,78.45
2022-08-22T15:52:29.025Z,84.68
2022-08-22T15:55:24.676Z,93.94
2022-08-22T15:58:09.062Z,100.00
2022-08-22T16:00:45.417Z,99.65
2022-08-22T16:03:25.991Z,100.00
2022-08-22T16:06:00.380Z,100.00
2022-08-22T16:08:33.440Z,100.00
2022-08-22T16:11:33.083Z,100.00
2022-08-22T16:14:25.338Z,100.00
2022-08-22T16:17:02.350Z,100.00
2022-08-22T16:19:33.142Z,100.00
2022-08-22T16:22:14.842Z,100.00
2022-08-22T16:25:07.057Z,100.00
2022-08-22T16:27:54.461Z,100.00
2022-08-22T16:30:38.082Z,100.00
2022-08-22T16:33:12.197Z,100.00
2022-08-22T16:36:24.535Z,100.00
2022-08-22T16:38:57.315Z,100.00
2022-08-22T16:41:37.311Z,100.00
2022-08-22T16:44:24.241Z,100.00
2022-08-22T16:47:07.249Z,100.00
2022-08-22T16:49:40.908Z,100.00
2022-08-22T16:52:54.863Z,100.00
2022-08-22T16:56:10.729Z,100.00
2022-08-22T16:59:22.868Z,100.00
2022-08-22T17:02:13.396Z,100.00
2022-08-22T17:04:52.017Z,100.00
2022-08-22T17:07:34.555Z,100.00
2022-08-22T17:10:24.106Z,100.00
2022-08-22T17:13:09.766Z,100.00
2022-08-22T17:16:01.393Z,100.00
2022-08-22T17:19:00.304Z,100.00
2022-08-22T17:21:32.259Z,100.00
2022-08-22T17:24:31.551Z,100.00
2022-08-22T17:27:07.733Z,100.00
2022-08-22T17:29:55.351Z,100.00
2022-08-22T17:32:35.360Z,100.00
2022-08-22T17:35:22.141Z,100.00
2022-08-22T17:38:09.643Z,100.00
2022-08-22T17:40:47.192Z,100.00
2022-08-22T17:43:27.829Z,100.00
2022-08-22T17:46:20.429Z,100.00
2022-08-22T17:48:56.047Z,100.00
2022-08-22T17:51:32.671Z,100.00
2022-08-22T17:54:07.693Z,100.00
2022-08-22T17:56:44.559Z,100.00
2022-08-22T17:59:21.050Z,100.00
2022-08-22T18:01:52.944Z,100.00
2022-08-22T18:04:54.143Z,100.00
2022-08-22T18:07:36.563Z,100.00
2022-08-22T18:10:11.187Z,100.00
2022-08-22T18:12:46.425Z,100.00
2022-08-22T18:15:24.697Z,100.00
2022-08-22T18:17:59.092Z,100.00
2022-08-22T18:20:36.038Z,100.00
2022-08-22T18:23:21.702Z,100.00
2022-08-22T18:26:16.053Z,100.00
2022-08-22T18:28:50.348Z,100.00
2022-08-22T18:31:39.766Z,100.00
2022-08-22T18:34:17.217Z,100.00
2022-08-22T18:36:55.281Z,100.00
2022-08-22T18:39:42.553Z,100.00
2022-08-22T18:42:23.899Z,100.00
2022-08-22T18:45:16.198Z,100.00
2022-08-22T18:47:56.789Z,100.00
2022-08-22T18:50:35.000Z,100.00
2022-08-22T18:53:33.773Z,100.00
2022-08-22T18:56:19.995Z,100.00
2022-08-22T18:59:05.348Z,100.00
2022-08-22T19:01:47.539Z,100.00
2022-08-22T19:04:45.829Z,100.00
2022-08-22T19:07:36.666Z,100.00
2022-08-22T19:10:20.778Z,100.00
2022-08-22T19:13:17.387Z,100.00
2022-08-22T19:15:57.777Z,100.00
2022-08-22T19:18:37.205Z,100.00
2022-08-22T19:21:37.824Z,100.00
2022-08-22T19:24:09.480Z,100.00
2022-08-22T19:26:44.558Z,100.00
2022-08-22T19:30:06.080Z,100.00
2022-08-22T19:33:01.739Z,100.00
2022-08-22T19:35:47.381Z,100.00
2022-08-22T19:39:09.225Z,100.00
2022-08-22T19:41:47.913Z,100.00
2022-08-22T19:44:45.139Z,100.00
2022-08-22T19:47:41.149Z,100.00
2022-08-22T19:50:28.516Z,100.00
2022-08-22T19:53:24.246Z,100.00
2022-08-22T19:56:11.007Z,100.00
2022-08-22T19:58:56.217Z,100.00
2022-08-22T20:01:39.435Z,100.00
2022-08-22T20:04:24.965Z,100.00
2022-08-22T20:07:14.610Z,100.00
2022-08-22T20:09:54.663Z,100.00
2022-08-22T20:12:38.166Z,100.00
2022-08-22T20:15:28.576Z,100.00
2022-08-22T20:18:46.422Z,100.00
2022-08-22T20:21:01.253Z,100.00
2022-08-22T20:23:33.447Z,100.00
2022-08-22T20:26:02.911Z,100.00
2022-08-22T20:28:58.222Z,100.00
2022-08-22T20:31:28.575Z,100.00
2022-08-22T20:34:04.592Z,100.00
2022-08-22T20:36:33.966Z,100.00
2022-08-22T20:39:09.572Z,100.00
2022-08-22T20:41:50.494Z,100.00
2022-08-22T20:44:24.637Z,100.00
2022-08-22T20:46:58.059Z,100.00
2022-08-22T20:49:30.935Z,100.00
2022-08-22T20:52:03.320Z,100.00
2022-08-22T20:54:38.354Z,100.00
2022-08-22T20:57:20.656Z,100.00
2022-08-22T20:59:53.934Z,100.00
2022-08-22T21:02:25.617Z,100.00
2022-08-22T21:05:03.594Z,100.00
2022-08-22T21:07:37.730Z,100.00
2022-08-22T21:10:40.569Z,100.00
2022-08-22T21:13:15.346Z,100.00
2022-08-22T21:15:48.644Z,100.00
2022-08-22T21:18:34.731Z,100.00
2022-08-22T21:21:17.067Z,100.00
2022-08-22T21:23:49.244Z,100.00
2022-08-22T21:26:26.551Z,100.00
2022-08-22T21:29:00.201Z,100.00
2022-08-22T21:31:32.100Z,100.00
2022-08-22T21:34:01.960Z,100.00
2022-08-22T21:36:34.325Z,100.00
2022-08-22T21:39:06.593Z,100.00
2022-08-22T21:41:41.358Z,100.00
2022-08-22T21:44:36.444Z,100.00
2022-08-22T21:47:31.263Z,100.00
2022-08-22T21:50:05.314Z,100.00
2022-08-22T21:52:35.996Z,100.00
2022-08-22T21:55:27.563Z,100.00
2022-08-22T21:58:10.485Z,100.00
2022-08-22T22:00:53.120Z,100.00
2022-08-22T22:03:23.305Z,100.00
2022-08-22T22:05:55.030Z,100.00
2022-08-22T22:08:59.837Z,100.00
2022-08-22T22:11:28.591Z,100.00
2022-08-22T22:13:58.623Z,100.00
2022-08-22T22:16:32.741Z,100.00
2022-08-22T22:19:02.229Z,100.00
2022-08-22T22:21:31.444Z,100.00
2022-08-22T22:24:00.232Z,100.00
2022-08-22T22:26:28.962Z,100.00
2022-08-22T22:29:00.525Z,100.00
2022-08-22T22:31:28.964Z,100.00
2022-08-22T22:34:02.639Z,100.00
2022-08-22T22:36:31.823Z,100.00
2022-08-22T22:39:06.592Z,100.00
2022-08-22T22:41:35.292Z,100.00
2022-08-22T22:44:07.758Z,100.00
2022-08-22T22:46:36.926Z,100.00
2022-08-22T22:49:06.316Z,100.00
2022-08-22T22:51:34.848Z,100.00
2022-08-22T22:54:03.793Z,100.00
2022-08-22T22:56:33.381Z,100.00
2022-08-22T22:59:13.656Z,100.00
2022-08-22T23:02:07.147Z,100.00
2022-08-22T23:04:38.207Z,100.00
2022-08-22T23:07:07.861Z,100.00
2022-08-22T23:09:38.543Z,100.00
2022-08-22T23:12:13.643Z,100.00
2022-08-22T23:14:42.148Z,100.00
2022-08-22T23:17:12.623Z,100.00
2022-08-22T23:19:41.456Z,100.00
2022-08-22T23:22:12.644Z,100.00
2022-08-22T23:24:43.078Z,100.00
2022-08-22T23:27:14.405Z,100.00
2022-08-22T23:29:43.892Z,100.00
2022-08-22T23:32:15.718Z,100.00
2022-08-22T23:34:49.078Z,100.00
2022-08-22T23:37:20.671Z,100.00
2022-08-22T23:39:49.750Z,100.00
2022-08-22T23:42:19.643Z,100.00
2022-08-22T23:44:48.289Z,100.00
2022-08-22T23:47:18.592Z,100.00
2022-08-22T23:49:47.191Z,100.00
2022-08-22T23:52:15.836Z,100.00
2022-08-22T23:54:44.712Z,100.00
2022-08-22T23:57:13.702Z,100.00
2022-08-22T23:59:48.576Z,100.00
